Juan Manuel Galvez International Airport
MHRO : now visible

Airfield :











YOU CAN JOIN US ON...

 
LOGIN :

Register | Disclaimer

   EN    FR    IT 

 









Legend :    VFR   Marginal VFR   IFR   Intensive IFR   Very Intensive IFR
Visi :
Ceiling :
>= 8 km
>= 3000ft
5 to 8 km
1000 to 3000 ft
1500m to 5 km
500 to 1000 ft
800 to 1500m
200 to 500 ft
< 800m
< 200 ft
Symbols :   Thunderstorms  Fog  Heavy snow  Heavy precipitations  Wind > 20 kt






- Airport Elevation : 18 ft
- IATA code : RTB


MHRO - Juan Manuel Galvez International

CURRENT METAR :
  • 211900Z 36012G22KT 3000 -RA BKN009 OVC070 23/21 Q1018 A3006 NOSIG

EXPIRED METARs :
  • 211800Z 36015KT 3000 -RA BKN009TCU OVC070 23/21 Q1019 A3009 NOSIG
  • 211700Z 36010G20KT 3000 -RA FEW008 BKN012TCU OVC070 22/21 Q1020 A3012 NOSIG

TAF TAF MHRO
Valid from the 21 at 18:00 until the 22 at 18:00 UTC


211640Z 2118/2218 35010G20KT 3000 RA FEW008 BKN018CB OVC070 TX25/2119Z TN25/2212Z
BECMG 2120/2122 5000 RA FEW004 BKN016TCU OVC070
BECMG 2203/2205 8000 VCSH BKN018TCU BKN080 BECMH 2210/2212 35010KT 5000 -RA



MET'MAP, your aeronautical weather chart ! - Copyright ORBIFLY December 2007 - Disclaimer

ORBIFLY MET'MAP TEAM :

Programming & Development : Alexandra Zaïnal
Concept & original design : Baudouin d'Aumeries
Assistance for programming : Marc-Olivier Méhu
Technical & hardware support : Manuel Goepfert

Contact : metmap@orbifly.com




SOURCES & CREDITS :

   NOAA       Earth
Advisory